createdAt,value
2023-12-12T00:01:29.462Z,98806.06
2023-12-12T00:03:58.060Z,98801.28
2023-12-12T00:06:27.658Z,98809.59
2023-12-12T00:09:00.483Z,98803.19
2023-12-12T00:11:30.214Z,98805.00
2023-12-12T00:14:01.501Z,98822.31
2023-12-12T00:16:32.298Z,98825.22
2023-12-12T00:19:04.762Z,98819.56
2023-12-12T00:21:45.431Z,98825.84
2023-12-12T00:24:18.829Z,98827.25
2023-12-12T00:26:50.235Z,98832.69
2023-12-12T00:29:19.525Z,98835.88
2023-12-12T00:31:50.445Z,98843.44
2023-12-12T00:34:23.619Z,98846.09
2023-12-12T00:36:54.336Z,98855.53
2023-12-12T00:39:28.860Z,98845.53
2023-12-12T00:42:06.964Z,98847.50
2023-12-12T00:44:36.329Z,98847.06
2023-12-12T00:47:08.908Z,98851.94
2023-12-12T00:49:49.975Z,98852.78
2023-12-12T00:52:22.016Z,98868.72
2023-12-12T00:55:02.365Z,98866.88
2023-12-12T00:57:46.801Z,98865.63
2023-12-12T01:00:25.229Z,98866.47
2023-12-12T01:03:00.555Z,98868.00
2023-12-12T01:05:29.688Z,98865.72
2023-12-12T01:08:01.876Z,98863.78
2023-12-12T01:10:30.879Z,98866.31
2023-12-12T01:13:11.386Z,98869.56
2023-12-12T01:15:42.930Z,98870.66
2023-12-12T01:18:14.091Z,98868.00
2023-12-12T01:20:52.620Z,98862.97
2023-12-12T01:23:22.839Z,98876.25
2023-12-12T01:26:00.326Z,98870.81
2023-12-12T01:28:31.404Z,98879.59
2023-12-12T01:31:08.748Z,98879.03
2023-12-12T01:33:55.635Z,98883.25
2023-12-12T01:36:24.839Z,98880.56
2023-12-12T01:38:58.829Z,98882.09
2023-12-12T01:41:30.769Z,98887.66
2023-12-12T01:44:00.532Z,98895.09
2023-12-12T01:46:38.755Z,98897.16
2023-12-12T01:49:12.784Z,98898.41
2023-12-12T01:51:45.262Z,98897.56
2023-12-12T01:54:15.984Z,98903.69
2023-12-12T01:56:54.357Z,98900.22
2023-12-12T01:59:26.882Z,98901.34
2023-12-12T02:01:56.488Z,98911.03
2023-12-12T02:04:31.992Z,98911.22
2023-12-12T02:07:02.570Z,98911.63
2023-12-12T02:09:41.409Z,98908.41
2023-12-12T02:12:11.823Z,98900.63
2023-12-12T02:14:47.256Z,98911.72
2023-12-12T02:17:23.317Z,98907.25
2023-12-12T02:20:02.662Z,98904.59
2023-12-12T02:22:36.294Z,98904.63
2023-12-12T02:25:10.876Z,98907.53
2023-12-12T02:27:42.978Z,98907.97
2023-12-12T02:30:14.601Z,98908.25
2023-12-12T02:32:45.861Z,98900.69
2023-12-12T02:35:15.606Z,98888.69
2023-12-12T02:37:56.010Z,98881.81
2023-12-12T02:40:26.282Z,98891.75
2023-12-12T02:42:59.650Z,98893.72
2023-12-12T02:45:32.214Z,98903.19
2023-12-12T02:48:01.134Z,98907.00
2023-12-12T02:50:33.029Z,98904.72
2023-12-12T02:53:15.099Z,98905.16
2023-12-12T02:55:47.713Z,98916.19
2023-12-12T02:58:17.672Z,98918.97
2023-12-12T03:00:52.720Z,98912.69
2023-12-12T03:03:25.351Z,98919.41
2023-12-12T03:05:57.235Z,98921.50
2023-12-12T03:08:44.879Z,98919.00
2023-12-12T03:11:19.605Z,98929.47
2023-12-12T03:13:53.864Z,98930.16
2023-12-12T03:16:26.223Z,98930.59
2023-12-12T03:18:59.937Z,98936.47
2023-12-12T03:21:31.757Z,98933.53
2023-12-12T03:24:01.670Z,98932.81
2023-12-12T03:26:37.102Z,98931.84
2023-12-12T03:29:13.475Z,98932.28
2023-12-12T03:31:44.382Z,98931.84
2023-12-12T03:34:29.066Z,98935.16
2023-12-12T03:37:00.841Z,98923.03
2023-12-12T03:39:32.081Z,98938.13
2023-12-12T03:42:10.800Z,98946.47
2023-12-12T03:44:43.786Z,98951.81
2023-12-12T03:47:24.094Z,98959.97
2023-12-12T03:49:54.611Z,98953.22
2023-12-12T03:52:30.750Z,98953.50
2023-12-12T03:55:12.614Z,98956.00
2023-12-12T03:57:45.791Z,98953.22
2023-12-12T04:00:17.968Z,98954.19
2023-12-12T04:02:58.294Z,98953.47
2023-12-12T04:05:42.715Z,98957.81
2023-12-12T04:08:13.259Z,98960.06
2023-12-12T04:10:45.679Z,98959.78
2023-12-12T04:13:22.750Z,98962.72
2023-12-12T04:15:54.729Z,98975.28
2023-12-12T04:18:36.701Z,98965.06
2023-12-12T04:21:14.619Z,98977.50
2023-12-12T04:23:47.052Z,98978.09
2023-12-12T04:26:20.478Z,98987.06
2023-12-12T04:28:50.634Z,98996.00
2023-12-12T04:31:21.668Z,98994.34
2023-12-12T04:33:59.186Z,98997.25
2023-12-12T04:36:31.238Z,98997.69
2023-12-12T04:39:00.312Z,99007.88
2023-12-12T04:41:41.157Z,99000.88
2023-12-12T04:44:10.798Z,98999.22
2023-12-12T04:46:42.630Z,99004.22
2023-12-12T04:49:14.985Z,99015.97
2023-12-12T04:51:46.519Z,99015.44
2023-12-12T04:54:16.198Z,99017.22
2023-12-12T04:56:54.040Z,99025.34
2023-12-12T04:59:31.045Z,99026.34
2023-12-12T05:02:00.321Z,99028.44
2023-12-12T05:04:32.103Z,99028.16
2023-12-12T05:07:01.385Z,99034.72
2023-12-12T05:09:36.150Z,99037.09
2023-12-12T05:12:10.150Z,99040.19
2023-12-12T05:14:41.393Z,99044.78
2023-12-12T05:17:11.631Z,99040.03
2023-12-12T05:19:54.317Z,99044.31
2023-12-12T05:22:28.438Z,99044.00
2023-12-12T05:24:57.808Z,99045.41
2023-12-12T05:27:32.382Z,99045.13
2023-12-12T05:30:06.265Z,99040.72
2023-12-12T05:32:43.600Z,99042.38
2023-12-12T05:35:21.099Z,99048.41
2023-12-12T05:37:52.447Z,99054.69
2023-12-12T05:40:29.671Z,99053.44
2023-12-12T05:43:00.226Z,99061.66
2023-12-12T05:45:38.085Z,99054.84
2023-12-12T05:48:13.511Z,99066.19
2023-12-12T05:50:59.098Z,99063.81
2023-12-12T05:53:28.427Z,99073.00
2023-12-12T05:56:06.530Z,99070.34
2023-12-12T05:58:51.060Z,99071.34
2023-12-12T06:01:28.533Z,99069.25
2023-12-12T06:04:06.198Z,99073.84
2023-12-12T06:06:51.327Z,99076.00
2023-12-12T06:09:21.133Z,99073.84
2023-12-12T06:12:00.713Z,99076.94
2023-12-12T06:14:31.561Z,99077.47
2023-12-12T06:17:08.661Z,99080.13
2023-12-12T06:19:43.317Z,99071.88
2023-12-12T06:22:26.155Z,99077.47
2023-12-12T06:24:57.137Z,99080.56
2023-12-12T06:27:33.910Z,99077.22
2023-12-12T06:30:20.646Z,99084.88
2023-12-12T06:32:51.931Z,99089.44
2023-12-12T06:35:24.238Z,99088.28
2023-12-12T06:38:01.280Z,99083.69
2023-12-12T06:40:38.713Z,99083.97
2023-12-12T06:43:12.997Z,99090.00
2023-12-12T06:45:48.366Z,99093.75
2023-12-12T06:48:25.444Z,99094.72
2023-12-12T06:50:59.173Z,99097.97
2023-12-12T06:53:30.794Z,99092.22
2023-12-12T06:56:02.105Z,99093.31
2023-12-12T06:58:39.513Z,99097.41
2023-12-12T07:01:34.455Z,99109.44
2023-12-12T07:04:05.603Z,99100.75
2023-12-12T07:06:36.351Z,99104.94
2023-12-12T07:09:09.729Z,99103.13
2023-12-12T07:11:40.468Z,99109.56
2023-12-12T07:14:10.374Z,99103.97
2023-12-12T07:16:49.646Z,99102.28
2023-12-12T07:19:26.418Z,99105.06
2023-12-12T07:21:59.765Z,99104.50
2023-12-12T07:24:40.289Z,99113.47
2023-12-12T07:27:13.737Z,99115.41
2023-12-12T07:29:46.878Z,99107.44
2023-12-12T07:32:30.520Z,99106.06
2023-12-12T07:34:59.287Z,99114.19
2023-12-12T07:37:31.678Z,99118.22
2023-12-12T07:40:07.912Z,99116.84
2023-12-12T07:42:44.265Z,99114.59
2023-12-12T07:45:16.583Z,99120.47
2023-12-12T07:48:00.502Z,99126.34
2023-12-12T07:50:34.213Z,99127.47
2023-12-12T07:53:06.213Z,99130.69
2023-12-12T07:55:37.959Z,99134.75
2023-12-12T07:58:19.324Z,99133.75
2023-12-12T08:00:49.864Z,99139.94
2023-12-12T08:03:28.826Z,99132.09
2023-12-12T08:05:58.944Z,99134.88
2023-12-12T08:08:28.928Z,99144.53
2023-12-12T08:10:59.999Z,99134.88
2023-12-12T08:13:30.690Z,99133.50
2023-12-12T08:16:04.465Z,99140.09
2023-12-12T08:18:49.179Z,99137.13
2023-12-12T08:21:21.442Z,99132.78
2023-12-12T08:23:51.050Z,99133.78
2023-12-12T08:26:26.707Z,99135.44
2023-12-12T08:29:04.193Z,99131.66
2023-12-12T08:31:40.656Z,99132.09
2023-12-12T08:34:16.216Z,99138.25
2023-12-12T08:36:46.947Z,99142.88
2023-12-12T08:39:17.598Z,99145.78
2023-12-12T08:41:48.549Z,99134.44
2023-12-12T08:44:17.087Z,99137.97
2023-12-12T08:46:45.624Z,99139.03
2023-12-12T08:49:25.204Z,99136.22
2023-12-12T08:51:55.562Z,99147.44
2023-12-12T08:54:32.631Z,99143.91
2023-12-12T08:57:05.760Z,99146.28
2023-12-12T08:59:35.498Z,99144.59
2023-12-12T09:02:20.030Z,99137.41
2023-12-12T09:04:55.986Z,99141.94
2023-12-12T09:07:37.972Z,99136.31
2023-12-12T09:10:09.452Z,99133.81
2023-12-12T09:12:38.704Z,99128.47
2023-12-12T09:15:19.504Z,99125.25
2023-12-12T09:18:00.878Z,99127.22
2023-12-12T09:20:38.167Z,99128.41
2023-12-12T09:23:10.005Z,99124.59
2023-12-12T09:25:48.239Z,99121.44
2023-12-12T09:28:19.390Z,99126.97
2023-12-12T09:30:49.767Z,99124.06
2023-12-12T09:33:21.628Z,99124.22
2023-12-12T09:36:06.923Z,99137.25
2023-12-12T09:38:43.797Z,99127.66
2023-12-12T09:41:25.289Z,99120.06
2023-12-12T09:44:02.629Z,99121.25
2023-12-12T09:46:42.676Z,99121.69
2023-12-12T09:49:20.450Z,99116.81
2023-12-12T09:51:55.972Z,99106.56
2023-12-12T09:54:26.036Z,99106.94
2023-12-12T09:56:57.980Z,99103.53
2023-12-12T09:59:32.002Z,99089.97
2023-12-12T10:02:21.970Z,99092.44
2023-12-12T10:04:55.592Z,99080.81
2023-12-12T10:07:39.599Z,99080.66
2023-12-12T10:10:20.649Z,99072.81
2023-12-12T10:12:52.373Z,99076.44
2023-12-12T10:15:32.100Z,99082.78
2023-12-12T10:18:02.594Z,99074.34
2023-12-12T10:20:39.058Z,99072.44
2023-12-12T10:23:16.409Z,99069.00
2023-12-12T10:25:53.198Z,99077.50
2023-12-12T10:28:29.784Z,99078.66
2023-12-12T10:31:01.634Z,99074.59
2023-12-12T10:33:39.349Z,99071.56
2023-12-12T10:36:29.518Z,99068.44
2023-12-12T10:39:16.610Z,99067.00
2023-12-12T10:42:03.663Z,99081.53
2023-12-12T10:44:34.336Z,99077.22
2023-12-12T10:47:19.553Z,99083.44
2023-12-12T10:49:58.253Z,99065.50
2023-12-12T10:52:34.929Z,99069.44
2023-12-12T10:55:15.783Z,99062.13
2023-12-12T10:57:58.441Z,99054.53
2023-12-12T11:00:32.767Z,99055.13
2023-12-12T11:03:04.866Z,99068.91
2023-12-12T11:05:43.905Z,99065.63
2023-12-12T11:08:14.655Z,99064.94
2023-12-12T11:10:48.294Z,99055.63
2023-12-12T11:13:19.513Z,99058.25
2023-12-12T11:15:51.331Z,99052.91
2023-12-12T11:18:22.221Z,99047.78
2023-12-12T11:20:59.044Z,99029.97
2023-12-12T11:23:57.669Z,99027.88
2023-12-12T11:26:30.696Z,99016.41
2023-12-12T11:29:02.651Z,99010.03
2023-12-12T11:31:46.961Z,99014.75
2023-12-12T11:34:23.821Z,99004.03
2023-12-12T11:37:03.000Z,99004.03
2023-12-12T11:39:41.901Z,99005.28
2023-12-12T11:42:26.372Z,98996.94
2023-12-12T11:44:57.992Z,98992.44
2023-12-12T11:47:31.489Z,98993.34
2023-12-12T11:50:37.878Z,98978.63
2023-12-12T11:53:18.070Z,98966.00
2023-12-12T11:55:55.813Z,98976.97
2023-12-12T11:58:31.437Z,98975.31
2023-12-12T12:01:03.356Z,98967.16
2023-12-12T12:03:37.115Z,98954.94
2023-12-12T12:06:15.302Z,98954.63
2023-12-12T12:09:04.976Z,98948.66
2023-12-12T12:11:41.205Z,98942.31
2023-12-12T12:14:16.494Z,98939.44
2023-12-12T12:16:48.379Z,98926.06
2023-12-12T12:19:34.732Z,98935.94
2023-12-12T12:22:09.848Z,98934.84
2023-12-12T12:24:44.049Z,98940.06
2023-12-12T12:27:21.541Z,98941.22
2023-12-12T12:30:13.977Z,98930.50
2023-12-12T12:33:00.840Z,98927.13
2023-12-12T12:35:39.728Z,98939.84
2023-12-12T12:38:33.068Z,98948.25
2023-12-12T12:41:04.467Z,98931.94
2023-12-12T12:43:36.854Z,98936.06
2023-12-12T12:46:13.532Z,98932.84
2023-12-12T12:48:48.045Z,98932.31
2023-12-12T12:51:17.391Z,98946.88
2023-12-12T12:53:51.812Z,98940.25
2023-12-12T12:56:23.798Z,98943.91
2023-12-12T12:58:58.061Z,98931.22
2023-12-12T13:01:30.259Z,98929.41
2023-12-12T13:04:08.763Z,98932.00
2023-12-12T13:06:38.164Z,98926.66
2023-12-12T13:09:33.568Z,98913.81
2023-12-12T13:12:05.979Z,98908.31
2023-12-12T13:14:36.270Z,98903.44
2023-12-12T13:17:07.740Z,98902.00
2023-12-12T13:19:54.460Z,98905.50
2023-12-12T13:22:29.207Z,98917.31
2023-12-12T13:24:59.905Z,98907.97
2023-12-12T13:27:30.963Z,98915.50
2023-12-12T13:29:59.245Z,98912.28
2023-12-12T13:32:33.997Z,98923.25
2023-12-12T13:35:09.895Z,98931.56
2023-12-12T13:37:43.034Z,98922.34
2023-12-12T13:40:24.077Z,98914.84
2023-12-12T13:42:54.007Z,98905.75
2023-12-12T13:45:35.248Z,98900.97
2023-12-12T13:48:15.950Z,98895.25
2023-12-12T13:51:03.405Z,98897.09
2023-12-12T13:53:35.352Z,98893.38
2023-12-12T13:56:13.349Z,98886.22
2023-12-12T13:59:01.732Z,98895.00
2023-12-12T14:01:36.668Z,98883.69
2023-12-12T14:04:20.397Z,98882.81
2023-12-12T14:07:00.079Z,98888.31
2023-12-12T14:09:38.634Z,98891.81
2023-12-12T14:12:12.624Z,98893.63
2023-12-12T14:14:50.221Z,98880.47
2023-12-12T14:17:33.859Z,98866.75
2023-12-12T14:20:09.804Z,98872.09
2023-12-12T14:22:49.778Z,98870.75
2023-12-12T14:25:29.586Z,98870.28
2023-12-12T14:28:02.756Z,98872.09
2023-12-12T14:30:41.110Z,98879.03
2023-12-12T14:33:18.723Z,98872.91
2023-12-12T14:35:55.649Z,98877.44
2023-12-12T14:38:35.176Z,98876.63
2023-12-12T14:41:06.636Z,98864.59
2023-12-12T14:43:41.100Z,98877.38
2023-12-12T14:46:13.684Z,98859.25
2023-12-12T14:48:47.432Z,98853.72
2023-12-12T14:51:28.803Z,98855.69
2023-12-12T14:54:00.487Z,98869.00
2023-12-12T14:56:30.786Z,98872.81
2023-12-12T14:58:59.851Z,98882.09
2023-12-12T15:01:37.697Z,98875.63
2023-12-12T15:04:20.136Z,98869.91
2023-12-12T15:06:50.990Z,98861.09
2023-12-12T15:09:23.028Z,98856.41
2023-12-12T15:12:01.210Z,98844.69
2023-12-12T15:14:31.792Z,98852.53
2023-12-12T15:17:04.514Z,98868.50
2023-12-12T15:19:35.983Z,98864.97
2023-12-12T15:22:33.943Z,98844.75
2023-12-12T15:25:24.559Z,98838.06
2023-12-12T15:28:23.720Z,98835.25
2023-12-12T15:30:54.748Z,98834.19
2023-12-12T15:33:36.029Z,98827.47
2023-12-12T15:36:17.488Z,98820.47
2023-12-12T15:38:56.072Z,98802.00
2023-12-12T15:41:26.891Z,98798.34
2023-12-12T15:44:06.145Z,98789.88
2023-12-12T15:47:05.452Z,98788.31
2023-12-12T15:49:36.581Z,98782.09
2023-12-12T15:52:14.532Z,98764.75
2023-12-12T15:54:50.988Z,98765.22
2023-12-12T15:57:25.771Z,98768.88
2023-12-12T15:59:59.660Z,98765.66
2023-12-12T16:02:37.505Z,98774.38
2023-12-12T16:05:21.326Z,98776.53
2023-12-12T16:08:00.248Z,98769.66
2023-12-12T16:10:45.128Z,98764.13
2023-12-12T16:13:16.572Z,98763.69
2023-12-12T16:15:47.850Z,98759.47
2023-12-12T16:18:20.894Z,98761.03
2023-12-12T16:21:06.106Z,98762.84
2023-12-12T16:23:36.179Z,98756.75
2023-12-12T16:26:11.236Z,98756.59
2023-12-12T16:28:55.101Z,98761.75
2023-12-12T16:31:29.184Z,98770.03
2023-12-12T16:34:00.231Z,98769.25
2023-12-12T16:36:31.796Z,98776.25
2023-12-12T16:39:10.535Z,98769.41
2023-12-12T16:41:45.215Z,98778.34
2023-12-12T16:44:23.540Z,98780.25
2023-12-12T16:47:01.295Z,98790.44
2023-12-12T16:49:35.775Z,98790.06
2023-12-12T16:52:14.223Z,98791.25
2023-12-12T16:54:51.375Z,98794.50
2023-12-12T16:57:28.624Z,98787.91
2023-12-12T16:59:59.532Z,98786.47
2023-12-12T17:02:31.939Z,98778.81
2023-12-12T17:05:06.143Z,98770.84
2023-12-12T17:07:45.982Z,98760.94
2023-12-12T17:10:20.092Z,98744.94
2023-12-12T17:12:55.037Z,98745.78
2023-12-12T17:15:34.915Z,98739.47
2023-12-12T17:18:15.317Z,98736.97
2023-12-12T17:20:49.916Z,98738.97
2023-12-12T17:23:21.598Z,98732.66
2023-12-12T17:25:55.107Z,98724.41
2023-12-12T17:28:30.264Z,98740.50
2023-12-12T17:31:04.716Z,98738.09
2023-12-12T17:33:35.701Z,98725.66
2023-12-12T17:36:21.925Z,98730.56
2023-12-12T17:38:56.239Z,98726.13
2023-12-12T17:41:29.166Z,98722.59
2023-12-12T17:44:07.722Z,98714.03
2023-12-12T17:46:45.114Z,98719.41
2023-12-12T17:49:20.006Z,98740.72
2023-12-12T17:51:55.910Z,98739.50
2023-12-12T17:54:32.966Z,98737.22
2023-12-12T17:57:05.222Z,98729.25
2023-12-12T17:59:40.145Z,98718.50
2023-12-12T18:02:11.485Z,98700.72
2023-12-12T18:04:42.506Z,98703.97
2023-12-12T18:07:17.347Z,98700.59
2023-12-12T18:09:55.923Z,98692.97
2023-12-12T18:12:39.756Z,98692.34
2023-12-12T18:15:17.582Z,98687.22
2023-12-12T18:18:01.335Z,98682.44
2023-12-12T18:20:42.336Z,98671.28
2023-12-12T18:23:15.558Z,98678.25
2023-12-12T18:25:57.557Z,98678.56
2023-12-12T18:28:28.938Z,98666.16
2023-12-12T18:31:12.389Z,98662.97
2023-12-12T18:33:43.796Z,98652.09
2023-12-12T18:36:22.353Z,98643.94
2023-12-12T18:39:00.538Z,98634.06
2023-12-12T18:41:32.733Z,98628.31
2023-12-12T18:44:02.362Z,98636.81
2023-12-12T18:46:46.324Z,98636.31
2023-12-12T18:49:19.973Z,98642.78
2023-12-12T18:52:03.839Z,98642.41
2023-12-12T18:54:38.822Z,98609.44
2023-12-12T18:57:12.762Z,98606.06
2023-12-12T18:59:45.319Z,98592.31
2023-12-12T19:02:26.668Z,98580.63
2023-12-12T19:05:02.996Z,98588.41
2023-12-12T19:07:36.855Z,98594.50
2023-12-12T19:10:13.522Z,98593.09
2023-12-12T19:12:49.279Z,98592.00
2023-12-12T19:15:33.504Z,98581.69
2023-12-12T19:18:08.575Z,98565.13
2023-12-12T19:20:59.400Z,98580.91
2023-12-12T19:23:40.788Z,98564.00
2023-12-12T19:26:40.415Z,98566.06
2023-12-12T19:29:18.910Z,98582.56
2023-12-12T19:32:02.275Z,98580.81
2023-12-12T19:34:52.850Z,98566.59
2023-12-12T19:37:35.698Z,98557.63
2023-12-12T19:40:15.982Z,98559.22
2023-12-12T19:42:49.901Z,98563.91
2023-12-12T19:45:26.986Z,98570.59
2023-12-12T19:48:11.579Z,98568.34
2023-12-12T19:50:45.758Z,98558.03
2023-12-12T19:53:33.075Z,98565.44
2023-12-12T19:56:16.065Z,98576.53
2023-12-12T19:58:52.169Z,98558.56
2023-12-12T20:01:28.096Z,98566.56
2023-12-12T20:04:03.950Z,98556.13
2023-12-12T20:06:45.524Z,98558.31
2023-12-12T20:09:20.075Z,98559.91
2023-12-12T20:12:03.662Z,98544.56
2023-12-12T20:14:47.478Z,98554.63
2023-12-12T20:17:22.753Z,98535.59
2023-12-12T20:19:57.627Z,98531.22
2023-12-12T20:22:56.211Z,98528.50
2023-12-12T20:25:36.605Z,98521.81
2023-12-12T20:28:23.922Z,98518.66
2023-12-12T20:34:22.127Z,98515.38
2023-12-12T20:36:55.687Z,98515.41
2023-12-12T20:39:54.723Z,98526.00
2023-12-12T20:42:45.039Z,98512.53
2023-12-12T20:45:18.953Z,98507.53
2023-12-12T20:47:57.370Z,98502.28
2023-12-12T20:50:47.722Z,98490.53
2023-12-12T20:53:25.400Z,98497.94
2023-12-12T20:56:04.812Z,98496.13
2023-12-12T20:58:41.780Z,98499.56
2023-12-12T21:01:27.414Z,98502.00
2023-12-12T21:04:13.050Z,98503.63
2023-12-12T21:06:42.935Z,98510.97
2023-12-12T21:09:20.799Z,98513.19
2023-12-12T21:11:53.900Z,98512.97
2023-12-12T21:14:39.279Z,98500.22
2023-12-12T21:17:10.371Z,98483.88
2023-12-12T21:19:44.099Z,98469.53
2023-12-12T21:22:28.068Z,98461.31
2023-12-12T21:25:00.519Z,98437.72
2023-12-12T21:27:51.411Z,98441.81
2023-12-12T21:30:20.578Z,98431.41
2023-12-12T21:33:04.462Z,98431.56
2023-12-12T21:35:51.968Z,98430.13
2023-12-12T21:38:32.873Z,98429.31
2023-12-12T21:41:09.774Z,98436.00
2023-12-12T21:43:43.481Z,98425.94
2023-12-12T21:46:24.558Z,98428.13
2023-12-12T21:48:56.736Z,98421.38
2023-12-12T21:51:35.364Z,98417.91
2023-12-12T21:54:16.564Z,98427.69
2023-12-12T21:56:52.433Z,98433.75
2023-12-12T21:59:31.563Z,98444.25
2023-12-12T22:02:05.086Z,98427.91
2023-12-12T22:04:42.585Z,98440.34
2023-12-12T22:07:14.256Z,98427.25
2023-12-12T22:09:44.915Z,98437.00
2023-12-12T22:12:16.377Z,98425.56
2023-12-12T22:14:52.164Z,98436.09
2023-12-12T22:17:23.132Z,98429.56
2023-12-12T22:20:06.100Z,98421.09
2023-12-12T22:22:40.722Z,98422.91
2023-12-12T22:25:11.236Z,98418.88
2023-12-12T22:27:46.734Z,98414.72
2023-12-12T22:30:22.612Z,98412.03
2023-12-12T22:33:05.618Z,98410.22
2023-12-12T22:35:36.838Z,98407.13
2023-12-12T22:38:12.331Z,98404.44
2023-12-12T22:40:50.951Z,98397.38
2023-12-12T22:43:23.817Z,98382.38
2023-12-12T22:46:01.525Z,98380.03
2023-12-12T22:48:31.369Z,98388.28
2023-12-12T22:51:05.006Z,98389.94
2023-12-12T22:53:34.440Z,98380.56
2023-12-12T22:56:04.859Z,98369.50
2023-12-12T22:58:37.197Z,98381.47
2023-12-12T23:01:17.781Z,98378.56
2023-12-12T23:03:56.398Z,98377.06
2023-12-12T23:06:29.593Z,98363.56
2023-12-12T23:08:59.227Z,98367.28
2023-12-12T23:11:37.913Z,98366.91
2023-12-12T23:14:08.690Z,98352.69
2023-12-12T23:16:57.786Z,98351.28
2023-12-12T23:19:38.894Z,98338.47
2023-12-12T23:22:11.610Z,98334.38
2023-12-12T23:24:41.723Z,98320.06
2023-12-12T23:27:21.091Z,98321.22
2023-12-12T23:29:49.648Z,98313.38
2023-12-12T23:32:35.860Z,98297.91
2023-12-12T23:35:14.835Z,98294.56
2023-12-12T23:37:48.947Z,98293.38
2023-12-12T23:40:21.426Z,98294.66
2023-12-12T23:42:52.163Z,98299.19
2023-12-12T23:45:37.657Z,98292.75
2023-12-12T23:48:23.472Z,98298.19
2023-12-12T23:50:52.733Z,98304.34
2023-12-12T23:53:25.127Z,98288.56
2023-12-12T23:55:56.501Z,98301.13
2023-12-12T23:58:28.745Z,98299.16
